createdAt,value
2018-07-19T00:02:15.158Z,19.72
2018-07-19T00:04:45.160Z,19.63
2018-07-19T00:07:15.244Z,19.60
2018-07-19T00:09:44.611Z,19.72
2018-07-19T00:12:14.169Z,19.53
2018-07-19T00:14:43.562Z,19.75
2018-07-19T00:17:13.093Z,19.58
2018-07-19T00:19:42.484Z,19.54
2018-07-19T00:22:11.653Z,19.56
2018-07-19T00:24:41.083Z,19.64
2018-07-19T00:27:10.396Z,19.57
2018-07-19T00:29:40.207Z,19.65
2018-07-19T00:32:09.589Z,19.66
2018-07-19T00:34:38.950Z,19.61
2018-07-19T00:37:08.457Z,19.61
2018-07-19T00:39:47.594Z,19.73
2018-07-19T00:42:17.003Z,19.55
2018-07-19T00:44:46.306Z,19.58
2018-07-19T00:47:15.642Z,19.45
2018-07-19T00:49:45.438Z,19.45
2018-07-19T00:52:14.770Z,19.40
2018-07-19T00:54:44.121Z,19.44
2018-07-19T00:57:13.484Z,19.14
2018-07-19T00:59:43.822Z,19.09
2018-07-19T01:02:13.191Z,19.19
2018-07-19T01:04:42.603Z,19.16
2018-07-19T01:07:11.923Z,19.19
2018-07-19T01:09:41.285Z,19.20
2018-07-19T01:12:11.046Z,19.14
2018-07-19T01:14:40.566Z,19.07
2018-07-19T01:17:09.879Z,18.94
2018-07-19T01:19:39.273Z,18.91
2018-07-19T01:22:08.539Z,18.92
2018-07-19T01:24:37.883Z,18.89
2018-07-19T01:27:07.421Z,18.92
2018-07-19T01:29:36.887Z,18.91
2018-07-19T01:32:06.202Z,18.91
2018-07-19T01:34:35.958Z,19.10
2018-07-19T01:37:05.893Z,19.08
2018-07-19T01:39:35.378Z,18.95
2018-07-19T01:42:31.690Z,18.87
2018-07-19T01:45:01.021Z,18.79
2018-07-19T01:47:30.410Z,18.86
2018-07-19T01:49:59.997Z,18.98
2018-07-19T01:52:29.335Z,18.97
2018-07-19T01:54:58.655Z,19.01
2018-07-19T01:57:27.957Z,18.86
2018-07-19T01:59:57.324Z,18.86
2018-07-19T02:02:26.599Z,18.87
2018-07-19T02:04:55.955Z,18.84
2018-07-19T02:07:25.278Z,18.85
2018-07-19T02:09:54.549Z,18.65
2018-07-19T02:12:24.333Z,18.87
2018-07-19T02:14:53.689Z,18.97
2018-07-19T02:17:22.979Z,18.85
2018-07-19T02:19:52.336Z,18.79
2018-07-19T02:22:21.629Z,18.77
2018-07-19T02:24:51.051Z,18.55
2018-07-19T02:27:20.314Z,18.64
2018-07-19T02:29:49.602Z,18.71
2018-07-19T02:32:18.901Z,18.73
2018-07-19T02:34:48.618Z,18.79
2018-07-19T02:37:17.897Z,18.75
2018-07-19T02:39:47.143Z,18.60
2018-07-19T02:42:16.466Z,18.60
2018-07-19T02:44:45.727Z,18.49
2018-07-19T02:47:15.003Z,18.58
2018-07-19T02:49:44.298Z,18.58
2018-07-19T02:52:13.668Z,18.55
2018-07-19T02:54:43.205Z,18.43
2018-07-19T02:57:12.993Z,18.40
2018-07-19T02:59:42.294Z,18.47
2018-07-19T03:02:11.649Z,18.48
2018-07-19T03:04:40.970Z,18.43
2018-07-19T03:07:10.272Z,18.50
2018-07-19T03:09:39.535Z,18.49
2018-07-19T03:12:08.919Z,18.44
2018-07-19T03:14:38.957Z,18.28
2018-07-19T03:17:08.247Z,18.33
2018-07-19T03:19:37.659Z,18.31
2018-07-19T03:22:07.288Z,18.40
2018-07-19T03:24:36.581Z,18.21
2018-07-19T03:27:05.918Z,18.21
2018-07-19T03:29:35.194Z,18.16
2018-07-19T03:32:04.504Z,18.19
2018-07-19T03:34:33.784Z,18.19
2018-07-19T03:37:03.054Z,18.21
2018-07-19T03:39:32.351Z,18.12
2018-07-19T03:42:01.746Z,18.17
2018-07-19T03:44:31.047Z,18.21
2018-07-19T03:47:00.095Z,18.21
2018-07-19T03:49:29.396Z,18.11
2018-07-19T03:51:58.675Z,18.12
2018-07-19T03:54:28.019Z,18.10
2018-07-19T03:56:57.525Z,18.32
2018-07-19T03:59:26.826Z,18.22
2018-07-19T04:01:56.113Z,18.30
2018-07-19T04:04:25.766Z,18.28
2018-07-19T04:06:55.089Z,18.15
2018-07-19T04:09:24.399Z,18.16
2018-07-19T04:11:53.723Z,18.13
2018-07-19T04:14:23.258Z,18.35
2018-07-19T04:16:52.522Z,18.36
2018-07-19T04:19:21.839Z,18.56
2018-07-19T04:21:51.105Z,18.56
2018-07-19T04:24:20.458Z,18.61
2018-07-19T04:26:50.294Z,18.76
2018-07-19T04:29:21.209Z,18.75
2018-07-19T04:31:50.513Z,18.92
2018-07-19T04:34:19.861Z,18.88
2018-07-19T04:36:49.214Z,18.85
2018-07-19T04:39:18.577Z,18.90
2018-07-19T04:41:47.859Z,18.68
2018-07-19T04:44:17.170Z,18.91
2018-07-19T04:46:46.750Z,18.96
2018-07-19T04:49:16.348Z,18.99
2018-07-19T04:51:45.421Z,19.11
2018-07-19T04:54:14.757Z,19.04
2018-07-19T04:56:43.831Z,19.32
2018-07-19T04:59:13.129Z,19.29
2018-07-19T05:01:42.460Z,19.40
2018-07-19T05:04:11.490Z,19.51
2018-07-19T05:06:40.801Z,19.66
2018-07-19T05:09:11.703Z,19.68
2018-07-19T05:11:40.998Z,19.59
2018-07-19T05:14:10.334Z,19.77
2018-07-19T05:16:39.786Z,19.83
2018-07-19T05:19:09.071Z,19.92
2018-07-19T05:21:38.400Z,20.16
2018-07-19T05:24:07.856Z,19.94
2018-07-19T05:26:37.161Z,20.22
2018-07-19T05:29:06.487Z,20.18
2018-07-19T05:31:35.990Z,20.11
2018-07-19T05:34:05.333Z,20.24
2018-07-19T05:36:34.627Z,20.40
2018-07-19T05:39:05.807Z,20.46
2018-07-19T05:41:35.094Z,20.63
2018-07-19T05:44:04.414Z,20.77
2018-07-19T05:46:33.778Z,20.81
2018-07-19T05:49:02.861Z,20.88
2018-07-19T05:51:32.202Z,20.81
2018-07-19T05:54:01.631Z,20.99
2018-07-19T05:56:30.961Z,21.08
2018-07-19T05:59:01.338Z,21.19
2018-07-19T06:01:30.681Z,21.10
2018-07-19T06:04:00.015Z,21.23
2018-07-19T06:06:29.318Z,21.32
2018-07-19T06:08:58.633Z,21.07
2018-07-19T06:11:28.015Z,21.21
2018-07-19T06:13:57.109Z,21.22
2018-07-19T06:16:26.848Z,21.27
2018-07-19T06:18:56.142Z,21.28
2018-07-19T06:21:25.436Z,21.42
2018-07-19T06:23:54.789Z,21.33
2018-07-19T06:26:24.145Z,21.35
2018-07-19T06:28:53.453Z,21.62
2018-07-19T06:31:22.843Z,21.66
2018-07-19T06:33:52.114Z,21.81
2018-07-19T06:36:21.518Z,21.78
2018-07-19T06:38:50.947Z,21.75
2018-07-19T06:41:20.351Z,21.73
2018-07-19T06:43:49.687Z,22.05
2018-07-19T06:46:19.099Z,22.02
2018-07-19T06:48:48.456Z,22.11
2018-07-19T06:51:17.756Z,22.06
2018-07-19T06:53:47.109Z,22.25
2018-07-19T06:56:16.441Z,22.58
2018-07-19T06:58:45.762Z,22.64
2018-07-19T07:01:15.568Z,22.74
2018-07-19T07:03:44.869Z,22.36
2018-07-19T07:06:14.293Z,22.31
2018-07-19T07:08:43.635Z,22.37
2018-07-19T07:11:12.973Z,22.54
2018-07-19T07:13:42.275Z,22.62
2018-07-19T07:16:11.651Z,22.86
2018-07-19T07:18:40.891Z,22.87
2018-07-19T07:21:10.228Z,22.90
2018-07-19T07:23:39.594Z,23.09
2018-07-19T07:26:08.877Z,22.98
2018-07-19T07:28:42.783Z,23.00
2018-07-19T07:31:12.336Z,23.38
2018-07-19T07:33:41.607Z,23.64
2018-07-19T07:36:10.915Z,23.91
2018-07-19T07:38:40.206Z,24.04
2018-07-19T07:41:09.485Z,24.01
2018-07-19T07:43:39.222Z,24.03
2018-07-19T07:46:08.583Z,24.11
2018-07-19T07:48:37.909Z,24.13
2018-07-19T07:51:07.222Z,24.18
2018-07-19T07:53:36.582Z,24.28
2018-07-19T07:56:05.939Z,24.41
2018-07-19T07:58:35.280Z,24.52
2018-07-19T08:01:04.547Z,24.72
2018-07-19T08:03:33.887Z,24.94
2018-07-19T08:06:03.951Z,25.16
2018-07-19T08:08:33.278Z,25.23
2018-07-19T08:11:02.604Z,25.21
2018-07-19T08:13:32.012Z,24.96
2018-07-19T08:16:01.351Z,25.32
2018-07-19T08:18:30.692Z,25.37
2018-07-19T08:21:00.071Z,25.42
2018-07-19T08:23:29.438Z,25.63
2018-07-19T08:25:58.741Z,25.77
2018-07-19T08:28:28.551Z,25.66
2018-07-19T08:30:58.033Z,25.84
2018-07-19T08:33:27.349Z,26.18
2018-07-19T08:35:56.816Z,26.49
2018-07-19T08:38:26.223Z,26.60
2018-07-19T08:40:55.605Z,26.85
2018-07-19T08:43:29.873Z,26.75
2018-07-19T08:45:59.193Z,26.59
2018-07-19T08:48:28.478Z,26.73
2018-07-19T08:50:57.834Z,26.95
2018-07-19T08:53:27.112Z,26.84
2018-07-19T08:55:56.478Z,26.68
2018-07-19T08:58:25.822Z,26.93
2018-07-19T09:00:55.184Z,27.18
2018-07-19T09:03:24.508Z,27.52
2018-07-19T09:05:54.288Z,27.57
2018-07-19T09:08:23.596Z,27.47
2018-07-19T09:10:52.927Z,27.59
2018-07-19T09:13:22.271Z,27.55
2018-07-19T09:15:51.557Z,27.84
2018-07-19T09:18:20.851Z,28.06
2018-07-19T09:20:50.154Z,28.16
2018-07-19T09:23:19.725Z,28.23
2018-07-19T09:25:49.057Z,28.45
2018-07-19T09:28:18.865Z,28.40
2018-07-19T09:30:48.208Z,28.57
2018-07-19T09:33:17.515Z,28.43
2018-07-19T09:35:46.919Z,28.28
2018-07-19T09:38:16.370Z,28.47
2018-07-19T09:40:45.628Z,28.61
2018-07-19T09:43:15.159Z,28.49
2018-07-19T09:45:44.478Z,28.70
2018-07-19T09:48:13.839Z,28.97
2018-07-19T09:50:43.632Z,29.07
2018-07-19T09:53:12.920Z,29.20
2018-07-19T09:55:42.300Z,28.96
2018-07-19T09:58:11.773Z,29.22
2018-07-19T10:00:46.413Z,29.33
2018-07-19T10:03:15.807Z,29.64
2018-07-19T10:05:45.155Z,29.71
2018-07-19T10:08:14.427Z,29.70
2018-07-19T10:10:44.050Z,29.51
2018-07-19T10:13:13.421Z,29.71
2018-07-19T10:15:42.747Z,29.83
2018-07-19T10:18:12.121Z,29.93
2018-07-19T10:20:41.424Z,29.63
2018-07-19T10:23:10.686Z,29.82
2018-07-19T10:25:39.995Z,30.21
2018-07-19T10:28:09.387Z,30.20
2018-07-19T10:30:38.760Z,30.30
2018-07-19T10:33:08.900Z,30.46
2018-07-19T10:35:38.313Z,30.68
2018-07-19T10:38:07.608Z,31.08
2018-07-19T10:40:36.940Z,31.21
2018-07-19T10:43:06.294Z,31.15
2018-07-19T10:45:35.596Z,31.16
2018-07-19T10:48:05.007Z,30.76
2018-07-19T10:50:34.359Z,30.97
2018-07-19T10:53:03.669Z,31.12
2018-07-19T10:55:33.144Z,31.34
2018-07-19T10:58:02.202Z,31.64
2018-07-19T11:00:31.488Z,31.51
2018-07-19T11:03:00.859Z,31.20
2018-07-19T11:05:30.166Z,30.72
2018-07-19T11:07:59.476Z,31.10
2018-07-19T11:10:28.808Z,31.20
2018-07-19T11:12:58.097Z,31.14
2018-07-19T11:15:27.508Z,31.48
2018-07-19T11:17:57.759Z,31.80
2018-07-19T11:20:27.061Z,31.45
2018-07-19T11:22:56.386Z,31.28
2018-07-19T11:25:25.747Z,31.42
2018-07-19T11:27:55.103Z,31.46
2018-07-19T11:30:24.545Z,31.99
2018-07-19T11:32:53.840Z,32.29
2018-07-19T11:35:23.141Z,32.55
2018-07-19T11:37:52.422Z,32.43
2018-07-19T11:40:22.459Z,32.67
2018-07-19T11:42:51.786Z,32.58
2018-07-19T11:45:21.205Z,32.42
2018-07-19T11:47:50.305Z,32.20
2018-07-19T11:50:19.734Z,32.17
2018-07-19T11:52:49.899Z,32.27
2018-07-19T11:55:19.249Z,32.31
2018-07-19T11:57:48.639Z,32.65
2018-07-19T12:00:17.902Z,32.52
2018-07-19T12:02:47.623Z,32.52
2018-07-19T12:05:16.908Z,31.97
2018-07-19T12:07:46.188Z,32.41
2018-07-19T12:10:15.519Z,32.85
2018-07-19T12:12:44.823Z,32.96
2018-07-19T12:15:14.156Z,32.84
2018-07-19T12:17:43.495Z,32.95
2018-07-19T12:20:13.023Z,33.07
2018-07-19T12:22:42.379Z,33.14
2018-07-19T12:25:12.007Z,32.82
2018-07-19T12:27:41.297Z,32.58
2018-07-19T12:30:10.619Z,31.96
2018-07-19T12:32:39.974Z,31.87
2018-07-19T12:35:09.259Z,32.15
2018-07-19T12:37:38.570Z,32.02
2018-07-19T12:40:07.938Z,32.50
2018-07-19T12:42:37.598Z,32.83
2018-07-19T12:45:06.920Z,33.08
2018-07-19T12:47:36.717Z,33.03
2018-07-19T12:50:06.059Z,32.48
2018-07-19T12:52:35.658Z,32.73
2018-07-19T12:55:04.956Z,33.10
2018-07-19T12:57:34.250Z,33.34
2018-07-19T13:00:03.610Z,33.37
2018-07-19T13:02:32.950Z,33.54
2018-07-19T13:05:02.270Z,33.41
2018-07-19T13:07:32.120Z,32.84
2018-07-19T13:10:02.685Z,32.79
2018-07-19T13:12:32.540Z,32.43
2018-07-19T13:15:01.915Z,32.64
2018-07-19T13:17:31.579Z,33.05
2018-07-19T13:20:00.971Z,32.87
2018-07-19T13:22:30.509Z,32.94
2018-07-19T13:25:00.100Z,33.10
2018-07-19T13:27:29.451Z,32.97
2018-07-19T13:29:58.758Z,32.74
2018-07-19T13:32:28.355Z,32.57
2018-07-19T13:34:57.800Z,32.76
2018-07-19T13:37:27.061Z,32.60
2018-07-19T13:39:56.411Z,32.25
2018-07-19T13:42:25.926Z,32.37
2018-07-19T13:44:55.250Z,32.38
2018-07-19T13:47:24.599Z,32.48
2018-07-19T13:49:53.918Z,31.97
2018-07-19T13:52:39.343Z,31.79
2018-07-19T13:55:08.743Z,32.18
2018-07-19T13:57:38.022Z,32.62
2018-07-19T14:00:07.336Z,32.55
2018-07-19T14:02:36.619Z,32.19
2018-07-19T14:05:06.623Z,32.27
2018-07-19T14:07:36.511Z,32.12
2018-07-19T14:10:06.357Z,32.36
2018-07-19T14:12:35.652Z,32.22
2018-07-19T14:15:06.627Z,32.01
2018-07-19T14:17:35.995Z,32.22
2018-07-19T14:20:05.484Z,32.12
2018-07-19T14:22:34.581Z,32.01
2018-07-19T14:25:03.936Z,32.00
2018-07-19T14:27:33.052Z,31.85
2018-07-19T14:30:02.407Z,32.27
2018-07-19T14:32:31.716Z,32.14
2018-07-19T14:35:01.038Z,32.39
2018-07-19T14:37:30.618Z,32.27
2018-07-19T14:39:59.958Z,31.80
2018-07-19T14:42:29.330Z,31.92
2018-07-19T14:44:58.696Z,31.67
2018-07-19T14:47:27.998Z,31.73
2018-07-19T14:49:57.344Z,31.89
2018-07-19T14:52:27.016Z,31.98
2018-07-19T14:54:56.315Z,31.98
2018-07-19T14:57:25.575Z,31.90
2018-07-19T14:59:55.151Z,31.80
2018-07-19T15:02:24.545Z,31.90
2018-07-19T15:04:53.808Z,31.79
2018-07-19T15:07:23.267Z,31.79
2018-07-19T15:09:52.833Z,31.80
2018-07-19T15:12:22.146Z,31.51
2018-07-19T15:14:51.505Z,31.35
2018-07-19T15:17:20.798Z,31.43
2018-07-19T15:19:50.163Z,31.52
2018-07-19T15:22:20.006Z,31.51
2018-07-19T15:24:49.374Z,31.65
2018-07-19T15:27:18.683Z,31.52
2018-07-19T15:29:47.991Z,31.15
2018-07-19T15:32:17.340Z,30.76
2018-07-19T15:34:46.666Z,30.86
2018-07-19T15:37:16.019Z,30.98
2018-07-19T15:39:45.675Z,30.67
2018-07-19T15:42:14.983Z,30.70
2018-07-19T15:44:44.425Z,30.47
2018-07-19T15:47:13.746Z,30.70
2018-07-19T15:49:43.111Z,30.92
2018-07-19T15:52:12.408Z,30.74
2018-07-19T15:54:41.838Z,30.69
2018-07-19T15:57:11.237Z,30.70
2018-07-19T15:59:40.594Z,30.62
2018-07-19T16:02:09.937Z,30.50
2018-07-19T16:04:39.311Z,30.48
2018-07-19T16:07:09.001Z,30.23
2018-07-19T16:09:38.323Z,30.31
2018-07-19T16:12:07.714Z,30.09
2018-07-19T16:14:37.215Z,29.70
2018-07-19T16:17:07.023Z,29.66
2018-07-19T16:19:36.339Z,29.78
2018-07-19T16:22:05.705Z,29.95
2018-07-19T16:24:35.087Z,30.35
2018-07-19T16:27:04.503Z,30.19
2018-07-19T16:29:33.986Z,30.28
2018-07-19T16:32:03.350Z,30.11
2018-07-19T16:34:32.727Z,29.80
2018-07-19T16:37:02.355Z,29.56
2018-07-19T16:39:31.668Z,29.52
2018-07-19T16:42:01.102Z,29.56
2018-07-19T16:44:30.500Z,29.60
2018-07-19T16:46:59.830Z,29.55
2018-07-19T16:49:29.168Z,29.55
2018-07-19T16:51:58.916Z,29.69
2018-07-19T16:54:28.250Z,29.37
2018-07-19T16:56:57.558Z,29.49
2018-07-19T16:59:26.902Z,29.40
2018-07-19T17:01:56.210Z,29.38
2018-07-19T17:04:25.700Z,29.27
2018-07-19T17:06:55.013Z,29.20
2018-07-19T17:09:24.371Z,29.26
2018-07-19T17:11:53.739Z,29.32
2018-07-19T17:14:23.686Z,29.38
2018-07-19T17:16:53.068Z,29.44
2018-07-19T17:19:22.395Z,29.24
2018-07-19T17:21:51.703Z,29.04
2018-07-19T17:24:20.982Z,28.99
2018-07-19T17:26:50.262Z,29.12
2018-07-19T17:29:19.604Z,28.94
2018-07-19T17:31:48.968Z,28.85
2018-07-19T17:34:18.287Z,28.92
2018-07-19T17:36:48.012Z,28.97
2018-07-19T17:39:17.502Z,28.94
2018-07-19T17:41:46.810Z,28.78
2018-07-19T17:44:16.138Z,28.65
2018-07-19T17:46:45.517Z,28.52
2018-07-19T17:49:14.894Z,28.71
2018-07-19T17:51:44.332Z,28.33
2018-07-19T17:54:13.717Z,28.31
2018-07-19T17:56:43.068Z,28.30
2018-07-19T17:59:12.851Z,28.38
2018-07-19T18:01:41.930Z,28.38
2018-07-19T18:04:11.263Z,28.43
2018-07-19T18:06:40.635Z,28.31
2018-07-19T18:09:11.305Z,28.27
2018-07-19T18:11:41.982Z,28.25
2018-07-19T18:14:11.406Z,28.28
2018-07-19T18:16:40.746Z,28.20
2018-07-19T18:19:10.422Z,27.96
2018-07-19T18:21:39.899Z,27.71
2018-07-19T18:24:09.184Z,27.60
2018-07-19T18:26:38.547Z,27.75
2018-07-19T18:29:08.166Z,27.71
2018-07-19T18:31:37.611Z,27.60
2018-07-19T18:34:07.259Z,27.56
2018-07-19T18:36:36.667Z,27.61
2018-07-19T18:39:10.621Z,27.49
2018-07-19T18:41:40.260Z,27.34
2018-07-19T18:44:09.989Z,27.33
2018-07-19T18:46:39.462Z,27.41
2018-07-19T18:49:08.848Z,27.22
2018-07-19T18:51:38.198Z,27.12
2018-07-19T18:54:07.564Z,26.96
2018-07-19T18:56:36.834Z,26.83
2018-07-19T18:59:06.254Z,26.80
2018-07-19T19:01:36.118Z,26.81
2018-07-19T19:04:05.470Z,26.66
2018-07-19T19:06:34.852Z,26.67
2018-07-19T19:09:06.218Z,26.50
2018-07-19T19:11:35.526Z,26.45
2018-07-19T19:14:04.979Z,26.36
2018-07-19T19:16:34.337Z,26.36
2018-07-19T19:19:03.970Z,26.28
2018-07-19T19:21:33.476Z,26.30
2018-07-19T19:24:03.205Z,26.15
2018-07-19T19:26:32.866Z,26.17
2018-07-19T19:29:02.499Z,26.14
2018-07-19T19:31:31.979Z,26.02
2018-07-19T19:34:01.324Z,25.99
2018-07-19T19:36:30.790Z,25.94
2018-07-19T19:39:00.237Z,25.80
2018-07-19T19:41:29.600Z,25.66
2018-07-19T19:43:58.924Z,25.61
2018-07-19T19:46:28.838Z,25.72
2018-07-19T19:48:58.219Z,25.60
2018-07-19T19:51:27.550Z,25.54
2018-07-19T19:53:59.914Z,25.49
2018-07-19T19:56:29.280Z,25.45
2018-07-19T19:58:58.626Z,25.38
2018-07-19T20:01:27.987Z,25.29
2018-07-19T20:03:57.336Z,25.35
2018-07-19T20:06:26.795Z,25.27
2018-07-19T20:08:56.288Z,25.18
2018-07-19T20:11:25.799Z,25.23
2018-07-19T20:13:55.416Z,25.24
2018-07-19T20:16:24.954Z,25.16
2018-07-19T20:18:54.356Z,25.10
2018-07-19T20:21:24.404Z,24.98
2018-07-19T20:23:54.040Z,24.94
2018-07-19T20:26:23.719Z,24.97
2018-07-19T20:28:53.542Z,24.85
2018-07-19T20:31:22.966Z,24.83
2018-07-19T20:33:52.227Z,24.77
2018-07-19T20:36:21.567Z,24.72
2018-07-19T20:38:50.908Z,24.56
2018-07-19T20:41:20.466Z,24.56
2018-07-19T20:43:49.906Z,24.46
2018-07-19T20:46:19.872Z,24.46
2018-07-19T20:48:49.256Z,24.34
2018-07-19T20:51:19.186Z,24.35
2018-07-19T20:53:48.550Z,24.21
2018-07-19T20:56:17.842Z,24.25
2018-07-19T20:58:47.190Z,24.16
2018-07-19T21:01:16.555Z,24.15
2018-07-19T21:03:45.884Z,24.07
2018-07-19T21:06:15.422Z,24.06
2018-07-19T21:08:44.747Z,24.01
2018-07-19T21:11:14.222Z,23.99
2018-07-19T21:13:44.280Z,23.94
2018-07-19T21:16:13.603Z,23.87
2018-07-19T21:18:43.177Z,23.93
2018-07-19T21:21:12.553Z,23.83
2018-07-19T21:23:41.946Z,23.87
2018-07-19T21:26:11.314Z,23.80
2018-07-19T21:28:40.700Z,23.76
2018-07-19T21:31:10.062Z,23.63
2018-07-19T21:33:39.424Z,23.66
2018-07-19T21:36:09.194Z,23.73
2018-07-19T21:38:38.476Z,23.64
2018-07-19T21:41:07.780Z,23.55
2018-07-19T21:43:37.227Z,23.51
2018-07-19T21:46:06.918Z,23.44
2018-07-19T21:48:36.498Z,23.45
2018-07-19T21:51:05.979Z,23.48
2018-07-19T21:53:35.390Z,23.35
2018-07-19T21:56:04.732Z,23.35
2018-07-19T21:58:34.216Z,23.30
2018-07-19T22:01:08.758Z,23.32
2018-07-19T22:03:38.198Z,23.27
2018-07-19T22:06:07.810Z,23.39
2018-07-19T22:08:37.206Z,23.52
2018-07-19T22:11:06.658Z,23.42
2018-07-19T22:13:36.026Z,23.31
2018-07-19T22:16:05.451Z,23.18
2018-07-19T22:18:35.214Z,23.11
2018-07-19T22:21:04.537Z,23.14
2018-07-19T22:23:33.855Z,23.18
2018-07-19T22:26:03.315Z,23.04
2018-07-19T22:28:32.620Z,22.93
2018-07-19T22:31:01.955Z,22.89
2018-07-19T22:33:31.255Z,22.88
2018-07-19T22:36:00.560Z,22.80
2018-07-19T22:38:29.867Z,22.67
2018-07-19T22:40:59.389Z,22.71
2018-07-19T22:43:28.726Z,22.63
2018-07-19T22:45:58.063Z,22.54
2018-07-19T22:48:27.497Z,22.50
2018-07-19T22:50:56.799Z,22.52
2018-07-19T22:53:26.128Z,22.45
2018-07-19T22:55:55.471Z,22.35
2018-07-19T22:58:24.731Z,22.41
2018-07-19T23:00:54.350Z,22.50
2018-07-19T23:03:23.858Z,22.37
2018-07-19T23:05:53.308Z,22.39
2018-07-19T23:08:22.651Z,22.27
2018-07-19T23:10:51.721Z,22.40
2018-07-19T23:13:21.497Z,22.43
2018-07-19T23:15:50.772Z,22.43
2018-07-19T23:18:19.838Z,22.34
2018-07-19T23:20:49.155Z,22.19
2018-07-19T23:23:18.449Z,22.08
2018-07-19T23:25:48.307Z,22.08
2018-07-19T23:28:17.681Z,22.06
2018-07-19T23:30:46.962Z,22.04
2018-07-19T23:33:16.278Z,22.10
2018-07-19T23:35:49.626Z,21.95
2018-07-19T23:38:23.138Z,22.09
2018-07-19T23:40:53.696Z,22.20
2018-07-19T23:43:34.876Z,21.96
2018-07-19T23:46:08.243Z,21.89
2018-07-19T23:48:37.587Z,21.99
2018-07-19T23:51:07.260Z,21.78
2018-07-19T23:53:36.567Z,21.80
2018-07-19T23:56:06.099Z,21.78
2018-07-19T23:58:35.402Z,21.56
